sensor_id;sensor_type;location;lat;lon;timestamp;pressure;altitude;pressure_sealevel;temperature;humidity
77325;BME280;66387;53.440;10.390;2023-03-14T00:00:55;98198.94;;;10.20;81.71
77325;BME280;66387;53.440;10.390;2023-03-14T00:03:21;98198.22;;;10.16;82.13
77325;BME280;66387;53.440;10.390;2023-03-14T00:05:46;98213.66;;;10.19;81.95
77325;BME280;66387;53.440;10.390;2023-03-14T00:08:11;98227.13;;;10.26;82.11
77325;BME280;66387;53.440;10.390;2023-03-14T00:10:37;98242.00;;;10.22;82.04
77325;BME280;66387;53.440;10.390;2023-03-14T00:13:03;98250.91;;;10.17;82.51
77325;BME280;66387;53.440;10.390;2023-03-14T00:15:28;98247.41;;;10.18;82.20
77325;BME280;66387;53.440;10.390;2023-03-14T00:17:53;98249.09;;;10.19;82.82
77325;BME280;66387;53.440;10.390;2023-03-14T00:20:19;98240.63;;;10.15;82.85
77325;BME280;66387;53.440;10.390;2023-03-14T00:22:44;98238.03;;;10.15;82.69
77325;BME280;66387;53.440;10.390;2023-03-14T00:25:11;98235.63;;;10.11;82.98
77325;BME280;66387;53.440;10.390;2023-03-14T00:27:37;98232.56;;;10.03;83.32
77325;BME280;66387;53.440;10.390;2023-03-14T00:30:03;98222.31;;;10.01;83.79
77325;BME280;66387;53.440;10.390;2023-03-14T00:32:29;98224.25;;;9.96;83.91
77325;BME280;66387;53.440;10.390;2023-03-14T00:34:54;98228.00;;;9.91;83.79
77325;BME280;66387;53.440;10.390;2023-03-14T00:37:20;98224.56;;;9.90;83.22
77325;BME280;66387;53.440;10.390;2023-03-14T00:39:45;98214.41;;;9.85;83.12
77325;BME280;66387;53.440;10.390;2023-03-14T00:42:10;98205.66;;;9.88;82.52
77325;BME280;66387;53.440;10.390;2023-03-14T00:44:36;98204.91;;;9.86;82.09
77325;BME280;66387;53.440;10.390;2023-03-14T00:47:01;98191.84;;;9.88;82.51
77325;BME280;66387;53.440;10.390;2023-03-14T00:49:26;98185.69;;;9.90;81.77
77325;BME280;66387;53.440;10.390;2023-03-14T00:51:52;98170.44;;;9.84;81.80
77325;BME280;66387;53.440;10.390;2023-03-14T00:54:18;98155.81;;;9.83;81.35
77325;BME280;66387;53.440;10.390;2023-03-14T00:56:44;98149.84;;;9.81;81.75
77325;BME280;66387;53.440;10.390;2023-03-14T00:59:09;98156.88;;;9.79;82.03
77325;BME280;66387;53.440;10.390;2023-03-14T01:01:34;98163.28;;;9.72;81.82
77325;BME280;66387;53.440;10.390;2023-03-14T01:04:00;98175.19;;;9.76;81.39
77325;BME280;66387;53.440;10.390;2023-03-14T01:06:27;98195.28;;;9.71;82.22
77325;BME280;66387;53.440;10.390;2023-03-14T01:08:53;98209.53;;;9.79;82.07
77325;BME280;66387;53.440;10.390;2023-03-14T01:11:25;98219.66;;;9.84;81.78
77325;BME280;66387;53.440;10.390;2023-03-14T01:13:51;98214.56;;;9.82;81.94
77325;BME280;66387;53.440;10.390;2023-03-14T01:16:18;98219.66;;;9.84;81.71
77325;BME280;66387;53.440;10.390;2023-03-14T01:18:44;98195.44;;;9.85;82.38
77325;BME280;66387;53.440;10.390;2023-03-14T01:21:24;98192.69;;;9.88;82.19
77325;BME280;66387;53.440;10.390;2023-03-14T01:23:51;98196.81;;;9.92;82.78
77325;BME280;66387;53.440;10.390;2023-03-14T01:26:18;98196.91;;;9.91;82.38
77325;BME280;66387;53.440;10.390;2023-03-14T01:28:45;98189.66;;;9.97;82.22
77325;BME280;66387;53.440;10.390;2023-03-14T01:31:11;98190.72;;;9.93;82.73
77325;BME280;66387;53.440;10.390;2023-03-14T01:33:37;98187.28;;;9.93;83.34
77325;BME280;66387;53.440;10.390;2023-03-14T01:36:03;98177.69;;;9.95;83.33
77325;BME280;66387;53.440;10.390;2023-03-14T01:38:30;98162.22;;;9.93;83.04
77325;BME280;66387;53.440;10.390;2023-03-14T01:40:56;98153.66;;;9.91;82.79
77325;BME280;66387;53.440;10.390;2023-03-14T01:43:22;98158.47;;;9.99;82.35
77325;BME280;66387;53.440;10.390;2023-03-14T01:46:28;98173.19;;;9.98;82.70
77325;BME280;66387;53.440;10.390;2023-03-14T01:48:59;98172.38;;;9.98;82.45
77325;BME280;66387;53.440;10.390;2023-03-14T01:51:46;98167.72;;;10.04;81.02
77325;BME280;66387;53.440;10.390;2023-03-14T01:54:26;98157.34;;;10.04;81.47
77325;BME280;66387;53.440;10.390;2023-03-14T01:56:57;98128.75;;;10.06;81.71
77325;BME280;66387;53.440;10.390;2023-03-14T01:59:28;98140.09;;;10.03;81.60
77325;BME280;66387;53.440;10.390;2023-03-14T02:01:55;98151.16;;;10.07;81.23
77325;BME280;66387;53.440;10.390;2023-03-14T02:04:21;98146.81;;;10.07;81.41
77325;BME280;66387;53.440;10.390;2023-03-14T02:06:55;98153.06;;;10.03;82.56
77325;BME280;66387;53.440;10.390;2023-03-14T02:09:22;98150.09;;;9.94;84.29
77325;BME280;66387;53.440;10.390;2023-03-14T02:11:49;98140.72;;;9.74;86.39
77325;BME280;66387;53.440;10.390;2023-03-14T02:14:21;98129.75;;;9.69;86.31
77325;BME280;66387;53.440;10.390;2023-03-14T02:16:50;98124.38;;;9.55;87.36
77325;BME280;66387;53.440;10.390;2023-03-14T02:19:25;98097.75;;;9.53;88.30
77325;BME280;66387;53.440;10.390;2023-03-14T02:22:04;98087.53;;;9.50;87.36
77325;BME280;66387;53.440;10.390;2023-03-14T02:24:38;98073.81;;;9.48;88.43
77325;BME280;66387;53.440;10.390;2023-03-14T02:27:10;98081.03;;;9.41;88.06
77325;BME280;66387;53.440;10.390;2023-03-14T02:30:01;98074.19;;;9.40;88.20
77325;BME280;66387;53.440;10.390;2023-03-14T02:32:26;98076.31;;;9.32;87.80
77325;BME280;66387;53.440;10.390;2023-03-14T02:34:56;98082.34;;;9.32;87.52
77325;BME280;66387;53.440;10.390;2023-03-14T02:37:25;98082.41;;;9.31;87.45
77325;BME280;66387;53.440;10.390;2023-03-14T02:39:52;98094.56;;;9.29;87.70
77325;BME280;66387;53.440;10.390;2023-03-14T02:42:17;98092.22;;;9.24;88.12
77325;BME280;66387;53.440;10.390;2023-03-14T02:44:53;98089.00;;;9.19;88.35
77325;BME280;66387;53.440;10.390;2023-03-14T02:47:21;98100.34;;;9.17;88.29
77325;BME280;66387;53.440;10.390;2023-03-14T02:49:47;98112.44;;;9.16;88.18
77325;BME280;66387;53.440;10.390;2023-03-14T02:52:13;98109.00;;;9.16;87.75
77325;BME280;66387;53.440;10.390;2023-03-14T02:54:38;98121.22;;;9.14;88.13
77325;BME280;66387;53.440;10.390;2023-03-14T02:57:03;98125.31;;;9.18;87.91
77325;BME280;66387;53.440;10.390;2023-03-14T02:59:29;98116.63;;;9.19;87.73
77325;BME280;66387;53.440;10.390;2023-03-14T03:01:54;98110.50;;;9.21;87.21
77325;BME280;66387;53.440;10.390;2023-03-14T03:04:19;98121.66;;;9.22;87.09
77325;BME280;66387;53.440;10.390;2023-03-14T03:06:44;98117.97;;;9.27;86.65
77325;BME280;66387;53.440;10.390;2023-03-14T03:09:10;98114.53;;;9.27;86.61
77325;BME280;66387;53.440;10.390;2023-03-14T03:11:35;98116.97;;;9.30;85.90
77325;BME280;66387;53.440;10.390;2023-03-14T03:14:00;98101.28;;;9.33;85.28
77325;BME280;66387;53.440;10.390;2023-03-14T03:16:25;98112.63;;;9.30;85.06
77325;BME280;66387;53.440;10.390;2023-03-14T03:18:51;98106.34;;;9.36;85.00
77325;BME280;66387;53.440;10.390;2023-03-14T03:21:16;98095.72;;;9.41;85.38
77325;BME280;66387;53.440;10.390;2023-03-14T03:23:41;98095.38;;;9.48;84.11
77325;BME280;66387;53.440;10.390;2023-03-14T03:26:09;98078.69;;;9.54;83.75
77325;BME280;66387;53.440;10.390;2023-03-14T03:28:34;98074.28;;;9.56;84.19
77325;BME280;66387;53.440;10.390;2023-03-14T03:31:07;98070.63;;;9.60;84.72
77325;BME280;66387;53.440;10.390;2023-03-14T03:33:32;98053.09;;;9.65;84.35
77325;BME280;66387;53.440;10.390;2023-03-14T03:35:58;98065.59;;;9.74;83.24
77325;BME280;66387;53.440;10.390;2023-03-14T03:38:23;98061.25;;;9.74;83.21
77325;BME280;66387;53.440;10.390;2023-03-14T03:40:48;98067.28;;;9.75;84.08
77325;BME280;66387;53.440;10.390;2023-03-14T03:43:13;98063.78;;;9.76;82.85
77325;BME280;66387;53.440;10.390;2023-03-14T03:45:39;98052.56;;;9.75;83.68
77325;BME280;66387;53.440;10.390;2023-03-14T03:48:04;98043.19;;;9.73;84.01
77325;BME280;66387;53.440;10.390;2023-03-14T03:50:30;98050.03;;;9.74;83.73
77325;BME280;66387;53.440;10.390;2023-03-14T03:52:55;98056.00;;;9.76;83.03
77325;BME280;66387;53.440;10.390;2023-03-14T03:55:21;98054.31;;;9.75;84.11
77325;BME280;66387;53.440;10.390;2023-03-14T03:57:46;98049.13;;;9.75;83.49
77325;BME280;66387;53.440;10.390;2023-03-14T04:00:11;98037.78;;;9.77;83.07
77325;BME280;66387;53.440;10.390;2023-03-14T04:02:37;98042.09;;;9.77;83.11
77325;BME280;66387;53.440;10.390;2023-03-14T04:05:03;98040.34;;;9.77;82.64
77325;BME280;66387;53.440;10.390;2023-03-14T04:07:31;98031.06;;;9.73;82.87
77325;BME280;66387;53.440;10.390;2023-03-14T04:09:57;98028.72;;;9.69;83.02
77325;BME280;66387;53.440;10.390;2023-03-14T04:12:22;98025.97;;;9.72;83.14
77325;BME280;66387;53.440;10.390;2023-03-14T04:14:47;98023.22;;;9.75;82.85
77325;BME280;66387;53.440;10.390;2023-03-14T04:17:12;98028.25;;;9.78;82.38
77325;BME280;66387;53.440;10.390;2023-03-14T04:19:38;98020.63;;;9.75;82.30
77325;BME280;66387;53.440;10.390;2023-03-14T04:22:03;98019.28;;;9.68;82.72
77325;BME280;66387;53.440;10.390;2023-03-14T04:24:28;98007.41;;;9.64;83.05
77325;BME280;66387;53.440;10.390;2023-03-14T04:26:54;98005.81;;;9.61;82.82
77325;BME280;66387;53.440;10.390;2023-03-14T04:29:19;98005.72;;;9.63;82.72
77325;BME280;66387;53.440;10.390;2023-03-14T04:31:44;98001.38;;;9.63;82.47
77325;BME280;66387;53.440;10.390;2023-03-14T04:34:09;98005.72;;;9.63;82.08
77325;BME280;66387;53.440;10.390;2023-03-14T04:36:35;97991.84;;;9.64;82.71
77325;BME280;66387;53.440;10.390;2023-03-14T04:39:01;98006.16;;;9.71;81.75
77325;BME280;66387;53.440;10.390;2023-03-14T04:41:26;97999.13;;;9.73;81.13
77325;BME280;66387;53.440;10.390;2023-03-14T04:43:52;97989.03;;;9.68;82.00
77325;BME280;66387;53.440;10.390;2023-03-14T04:46:17;97980.72;;;9.79;80.74
77325;BME280;66387;53.440;10.390;2023-03-14T04:48:42;97980.78;;;9.77;81.51
77325;BME280;66387;53.440;10.390;2023-03-14T04:51:07;97991.75;;;9.82;80.94
77325;BME280;66387;53.440;10.390;2023-03-14T04:53:33;97978.69;;;9.84;80.21
77325;BME280;66387;53.440;10.390;2023-03-14T04:55:59;97987.41;;;9.83;80.81
77325;BME280;66387;53.440;10.390;2023-03-14T04:58:24;97985.34;;;9.90;80.49
77325;BME280;66387;53.440;10.390;2023-03-14T05:00:50;97978.22;;;9.93;80.72
77325;BME280;66387;53.440;10.390;2023-03-14T05:03:15;97982.19;;;10.00;79.63
77325;BME280;66387;53.440;10.390;2023-03-14T05:05:41;97972.03;;;9.96;79.86
77325;BME280;66387;53.440;10.390;2023-03-14T05:08:06;97975.47;;;9.96;80.29
77325;BME280;66387;53.440;10.390;2023-03-14T05:10:31;97967.53;;;9.99;79.29
77325;BME280;66387;53.440;10.390;2023-03-14T05:12:57;97967.69;;;9.96;78.86
77325;BME280;66387;53.440;10.390;2023-03-14T05:15:22;97979.91;;;9.94;79.76
77325;BME280;66387;53.440;10.390;2023-03-14T05:17:47;97965.03;;;9.98;79.28
77325;BME280;66387;53.440;10.390;2023-03-14T05:20:14;97969.53;;;9.94;79.53
77325;BME280;66387;53.440;10.390;2023-03-14T05:22:40;97983.41;;;9.93;80.07
77325;BME280;66387;53.440;10.390;2023-03-14T05:25:06;97970.63;;;9.90;79.76
77325;BME280;66387;53.440;10.390;2023-03-14T05:27:32;97966.78;;;9.97;79.24
77325;BME280;66387;53.440;10.390;2023-03-14T05:29:57;97970.47;;;9.93;79.54
77325;BME280;66387;53.440;10.390;2023-03-14T05:32:23;97972.03;;;9.96;79.20
77325;BME280;66387;53.440;10.390;2023-03-14T05:34:48;97955.97;;;9.89;79.79
77325;BME280;66387;53.440;10.390;2023-03-14T05:37:13;97959.47;;;9.88;79.76
77325;BME280;66387;53.440;10.390;2023-03-14T05:39:39;97951.13;;;9.83;79.40
77325;BME280;66387;53.440;10.390;2023-03-14T05:42:04;97954.97;;;9.76;80.55
77325;BME280;66387;53.440;10.390;2023-03-14T05:44:29;97953.13;;;9.78;80.21
77325;BME280;66387;53.440;10.390;2023-03-14T05:46:55;97957.56;;;9.76;80.69
77325;BME280;66387;53.440;10.390;2023-03-14T05:49:20;97946.41;;;9.74;80.19
77325;BME280;66387;53.440;10.390;2023-03-14T05:51:45;97963.72;;;9.73;80.04
77325;BME280;66387;53.440;10.390;2023-03-14T05:54:11;97946.53;;;9.72;80.65
77325;BME280;66387;53.440;10.390;2023-03-14T05:56:36;97953.13;;;9.78;79.88
77325;BME280;66387;53.440;10.390;2023-03-14T05:59:01;97941.91;;;9.77;79.48
77325;BME280;66387;53.440;10.390;2023-03-14T06:01:28;97959.13;;;9.78;79.99
77325;BME280;66387;53.440;10.390;2023-03-14T06:03:53;97948.78;;;9.78;79.88
77325;BME280;66387;53.440;10.390;2023-03-14T06:06:19;97951.44;;;9.77;80.15
77325;BME280;66387;53.440;10.390;2023-03-14T06:08:44;97948.84;;;9.77;79.88
77325;BME280;66387;53.440;10.390;2023-03-14T06:11:09;97948.25;;;9.72;80.64
77325;BME280;66387;53.440;10.390;2023-03-14T06:13:35;97950.91;;;9.70;80.16
77325;BME280;66387;53.440;10.390;2023-03-14T06:16:00;97955.34;;;9.68;80.50
77325;BME280;66387;53.440;10.390;2023-03-14T06:18:25;97958.25;;;9.62;80.30
77325;BME280;66387;53.440;10.390;2023-03-14T06:20:54;97962.59;;;9.62;80.70
77325;BME280;66387;53.440;10.390;2023-03-14T06:23:19;97963.44;;;9.62;80.35
77325;BME280;66387;53.440;10.390;2023-03-14T06:25:44;97958.50;;;9.58;80.18
77325;BME280;66387;53.440;10.390;2023-03-14T06:28:10;97959.25;;;9.60;80.96
77325;BME280;66387;53.440;10.390;2023-03-14T06:30:35;97970.44;;;9.60;80.38
77325;BME280;66387;53.440;10.390;2023-03-14T06:33:00;97971.28;;;9.61;79.84
77325;BME280;66387;53.440;10.390;2023-03-14T06:35:25;97961.84;;;9.60;79.69
77325;BME280;66387;53.440;10.390;2023-03-14T06:37:51;97970.50;;;9.59;80.23
77325;BME280;66387;53.440;10.390;2023-03-14T06:40:16;97975.13;;;9.54;79.74
77325;BME280;66387;53.440;10.390;2023-03-14T06:42:44;97974.19;;;9.55;80.31
77325;BME280;66387;53.440;10.390;2023-03-14T06:45:09;97975.19;;;9.52;79.90
77325;BME280;66387;53.440;10.390;2023-03-14T06:47:35;97989.81;;;9.53;79.87
77325;BME280;66387;53.440;10.390;2023-03-14T06:50:00;97984.00;;;9.48;79.96
77325;BME280;66387;53.440;10.390;2023-03-14T06:52:25;97982.59;;;9.43;80.56
77325;BME280;66387;53.440;10.390;2023-03-14T06:54:51;97976.47;;;9.44;80.73
77325;BME280;66387;53.440;10.390;2023-03-14T06:57:16;97985.00;;;9.46;79.89
77325;BME280;66387;53.440;10.390;2023-03-14T06:59:41;97981.34;;;9.50;79.72
77325;BME280;66387;53.440;10.390;2023-03-14T07:02:10;98004.50;;;9.53;79.01
77325;BME280;66387;53.440;10.390;2023-03-14T07:04:35;97993.53;;;9.48;79.51
77325;BME280;66387;53.440;10.390;2023-03-14T07:07:00;98002.97;;;9.49;78.84
77325;BME280;66387;53.440;10.390;2023-03-14T07:09:26;98001.28;;;9.48;79.17
77325;BME280;66387;53.440;10.390;2023-03-14T07:11:51;98002.97;;;9.49;78.76
77325;BME280;66387;53.440;10.390;2023-03-14T07:14:16;98014.34;;;9.46;79.32
77325;BME280;66387;53.440;10.390;2023-03-14T07:16:41;98023.16;;;9.42;79.12
77325;BME280;66387;53.440;10.390;2023-03-14T07:19:07;98017.00;;;9.45;78.85
77325;BME280;66387;53.440;10.390;2023-03-14T07:21:32;98022.16;;;9.45;79.65
77325;BME280;66387;53.440;10.390;2023-03-14T07:23:59;98027.34;;;9.45;79.59
77325;BME280;66387;53.440;10.390;2023-03-14T07:26:25;98020.66;;;9.41;79.19
77325;BME280;66387;53.440;10.390;2023-03-14T07:28:50;98026.66;;;9.41;79.28
77325;BME280;66387;53.440;10.390;2023-03-14T07:31:15;98031.00;;;9.41;78.01
77325;BME280;66387;53.440;10.390;2023-03-14T07:33:40;98017.16;;;9.42;77.56
77325;BME280;66387;53.440;10.390;2023-03-14T07:36:06;98034.38;;;9.43;78.69
77325;BME280;66387;53.440;10.390;2023-03-14T07:38:31;98028.25;;;9.44;78.12
77325;BME280;66387;53.440;10.390;2023-03-14T07:41:01;98034.06;;;9.49;78.17
77325;BME280;66387;53.440;10.390;2023-03-14T07:43:27;98029.72;;;9.49;78.43
77325;BME280;66387;53.440;10.390;2023-03-14T07:45:52;98025.16;;;9.54;78.01
77325;BME280;66387;53.440;10.390;2023-03-14T07:48:18;98021.72;;;9.54;78.93
77325;BME280;66387;53.440;10.390;2023-03-14T07:50:43;98027.75;;;9.54;78.44
77325;BME280;66387;53.440;10.390;2023-03-14T07:53:08;98026.59;;;9.60;78.71
77325;BME280;66387;53.440;10.390;2023-03-14T07:55:34;98026.06;;;9.53;78.97
77325;BME280;66387;53.440;10.390;2023-03-14T07:57:59;98032.94;;;9.54;79.17
77325;BME280;66387;53.440;10.390;2023-03-14T08:00:25;98031.41;;;9.50;79.38
77325;BME280;66387;53.440;10.390;2023-03-14T08:02:50;98026.22;;;9.50;79.84
77325;BME280;66387;53.440;10.390;2023-03-14T08:05:15;98036.50;;;9.52;80.05
77325;BME280;66387;53.440;10.390;2023-03-14T08:07:41;98032.78;;;9.57;80.17
77325;BME280;66387;53.440;10.390;2023-03-14T08:10:07;98033.63;;;9.58;79.50
77325;BME280;66387;53.440;10.390;2023-03-14T08:12:32;98039.22;;;9.66;80.25
77325;BME280;66387;53.440;10.390;2023-03-14T08:14:57;98039.84;;;9.71;79.96
77325;BME280;66387;53.440;10.390;2023-03-14T08:17:24;98028.56;;;9.72;79.17
77325;BME280;66387;53.440;10.390;2023-03-14T08:19:49;98046.53;;;9.75;78.87
77325;BME280;66387;53.440;10.390;2023-03-14T08:22:15;98030.38;;;9.70;79.87
77325;BME280;66387;53.440;10.390;2023-03-14T08:24:40;98034.50;;;9.74;79.55
77325;BME280;66387;53.440;10.390;2023-03-14T08:27:06;98036.63;;;9.66;80.60
77325;BME280;66387;53.440;10.390;2023-03-14T08:29:31;98025.84;;;9.58;80.43
77325;BME280;66387;53.440;10.390;2023-03-14T08:31:56;98035.25;;;9.59;80.74
77325;BME280;66387;53.440;10.390;2023-03-14T08:34:21;98032.97;;;9.70;80.94
77325;BME280;66387;53.440;10.390;2023-03-14T08:36:47;98017.81;;;9.79;79.26
77325;BME280;66387;53.440;10.390;2023-03-14T08:39:12;98027.69;;;9.89;78.60
77325;BME280;66387;53.440;10.390;2023-03-14T08:41:37;98025.22;;;10.03;79.07
77325;BME280;66387;53.440;10.390;2023-03-14T08:44:08;98018.97;;;10.07;78.25
77325;BME280;66387;53.440;10.390;2023-03-14T08:46:34;98012.72;;;10.11;77.87
77325;BME280;66387;53.440;10.390;2023-03-14T08:48:59;98015.78;;;10.19;77.43
77325;BME280;66387;53.440;10.390;2023-03-14T08:51:25;98022.97;;;10.29;75.73
77325;BME280;66387;53.440;10.390;2023-03-14T08:53:50;98022.66;;;10.36;76.55
77325;BME280;66387;53.440;10.390;2023-03-14T08:56:15;98018.81;;;10.43;75.22
77325;BME280;66387;53.440;10.390;2023-03-14T08:58:41;98011.88;;;10.43;75.73
77325;BME280;66387;53.440;10.390;2023-03-14T09:01:09;98016.13;;;10.44;75.16
77325;BME280;66387;53.440;10.390;2023-03-14T09:03:35;98015.63;;;10.53;75.76
77325;BME280;66387;53.440;10.390;2023-03-14T09:06:08;98019.16;;;10.52;73.64
77325;BME280;66387;53.440;10.390;2023-03-14T09:08:33;98017.75;;;10.62;73.52
77325;BME280;66387;53.440;10.390;2023-03-14T09:11:00;98008.94;;;10.65;73.50
77325;BME280;66387;53.440;10.390;2023-03-14T09:13:25;98011.09;;;10.57;74.02
77325;BME280;66387;53.440;10.390;2023-03-14T09:15:51;98005.34;;;10.67;73.67
77325;BME280;66387;53.440;10.390;2023-03-14T09:18:17;98010.94;;;10.75;72.65
77325;BME280;66387;53.440;10.390;2023-03-14T09:20:42;98018.47;;;10.80;73.21
77325;BME280;66387;53.440;10.390;2023-03-14T09:23:07;98006.00;;;10.87;72.51
77325;BME280;66387;53.440;10.390;2023-03-14T09:25:32;98003.66;;;10.82;72.74
77325;BME280;66387;53.440;10.390;2023-03-14T09:27:58;97993.53;;;10.77;72.54
77325;BME280;66387;53.440;10.390;2023-03-14T09:30:23;98015.28;;;10.75;71.03
77325;BME280;66387;53.440;10.390;2023-03-14T09:32:48;98004.25;;;10.87;71.68
77325;BME280;66387;53.440;10.390;2023-03-14T09:35:13;98000.91;;;10.85;71.33
77325;BME280;66387;53.440;10.390;2023-03-14T09:37:39;98001.81;;;10.84;70.45
77325;BME280;66387;53.440;10.390;2023-03-14T09:40:05;98000.97;;;10.83;70.21
77325;BME280;66387;53.440;10.390;2023-03-14T09:42:36;98009.97;;;10.78;70.70
77325;BME280;66387;53.440;10.390;2023-03-14T09:45:05;98005.25;;;10.85;71.22
77325;BME280;66387;53.440;10.390;2023-03-14T09:47:33;98006.84;;;10.87;70.08
77325;BME280;66387;53.440;10.390;2023-03-14T09:50:00;98003.50;;;10.85;70.47
77325;BME280;66387;53.440;10.390;2023-03-14T09:52:36;98011.13;;;10.88;70.28
77325;BME280;66387;53.440;10.390;2023-03-14T09:55:12;98000.88;;;11.01;69.46
77325;BME280;66387;53.440;10.390;2023-03-14T09:57:39;98015.16;;;11.08;69.61
77325;BME280;66387;53.440;10.390;2023-03-14T10:02:42;98008.44;;;11.19;69.19
77325;BME280;66387;53.440;10.390;2023-03-14T10:05:16;98001.88;;;11.14;68.07
77325;BME280;66387;53.440;10.390;2023-03-14T10:07:42;98003.44;;;11.16;69.15
77325;BME280;66387;53.440;10.390;2023-03-14T10:10:14;98002.03;;;11.11;69.41
77325;BME280;66387;53.440;10.390;2023-03-14T10:12:40;98004.53;;;11.12;69.47
77325;BME280;66387;53.440;10.390;2023-03-14T10:15:09;98011.75;;;11.07;69.17
77325;BME280;66387;53.440;10.390;2023-03-14T10:17:40;98019.13;;;10.99;69.89
77325;BME280;66387;53.440;10.390;2023-03-14T10:20:27;98022.22;;;10.90;71.44
77325;BME280;66387;53.440;10.390;2023-03-14T10:22:58;98029.78;;;10.79;72.36
77325;BME280;66387;53.440;10.390;2023-03-14T10:25:29;98078.25;;;10.63;74.72
77325;BME280;66387;53.440;10.390;2023-03-14T10:27:55;98078.34;;;10.28;78.93
77325;BME280;66387;53.440;10.390;2023-03-14T10:30:46;98104.00;;;9.83;82.81
77325;BME280;66387;53.440;10.390;2023-03-14T10:35:46;98113.63;;;8.53;86.72
77325;BME280;66387;53.440;10.390;2023-03-14T10:38:17;98142.03;;;8.34;86.07
77325;BME280;66387;53.440;10.390;2023-03-14T10:40:47;98145.22;;;8.01;87.40
77325;BME280;66387;53.440;10.390;2023-03-14T10:43:17;98153.16;;;7.96;87.39
77325;BME280;66387;53.440;10.390;2023-03-14T10:45:51;98160.06;;;7.75;86.11
77325;BME280;66387;53.440;10.390;2023-03-14T10:48:32;98180.84;;;7.51;87.26
77325;BME280;66387;53.440;10.390;2023-03-14T10:51:05;98176.63;;;7.48;87.14
77325;BME280;66387;53.440;10.390;2023-03-14T10:53:49;98182.19;;;7.39;86.94
77325;BME280;66387;53.440;10.390;2023-03-14T10:56:18;98192.50;;;7.39;87.73
77325;BME280;66387;53.440;10.390;2023-03-14T10:58:45;98208.41;;;7.28;88.32
77325;BME280;66387;53.440;10.390;2023-03-14T11:04:21;98236.38;;;7.16;88.83
77325;BME280;66387;53.440;10.390;2023-03-14T11:06:59;98251.47;;;7.03;87.41
77325;BME280;66387;53.440;10.390;2023-03-14T11:14:47;98287.50;;;6.57;89.31
77325;BME280;66387;53.440;10.390;2023-03-14T11:17:22;98308.81;;;6.11;87.19
77325;BME280;66387;53.440;10.390;2023-03-14T11:19:58;98311.63;;;5.75;86.65
77325;BME280;66387;53.440;10.390;2023-03-14T11:22:52;98334.09;;;5.41;87.08
77325;BME280;66387;53.440;10.390;2023-03-14T11:28:18;98370.31;;;5.03;88.10
77325;BME280;66387;53.440;10.390;2023-03-14T11:30:55;98376.47;;;4.95;87.72
77325;BME280;66387;53.440;10.390;2023-03-14T11:33:54;98374.13;;;4.88;87.04
77325;BME280;66387;53.440;10.390;2023-03-14T11:36:20;98386.13;;;4.54;85.12
77325;BME280;66387;53.440;10.390;2023-03-14T11:38:49;98397.94;;;4.61;86.11
77325;BME280;66387;53.440;10.390;2023-03-14T11:41:20;98422.78;;;4.60;86.92
77325;BME280;66387;53.440;10.390;2023-03-14T11:43:55;98447.72;;;4.57;87.16
77325;BME280;66387;53.440;10.390;2023-03-14T11:46:25;98456.53;;;4.47;88.06
77325;BME280;66387;53.440;10.390;2023-03-14T11:49:03;98461.03;;;4.37;86.49
77325;BME280;66387;53.440;10.390;2023-03-14T11:51:35;98468.91;;;4.29;87.42
77325;BME280;66387;53.440;10.390;2023-03-14T11:54:11;98479.31;;;4.23;87.50
77325;BME280;66387;53.440;10.390;2023-03-14T11:56:46;98498.97;;;4.26;86.84
77325;BME280;66387;53.440;10.390;2023-03-14T11:59:21;98507.53;;;4.25;86.91
77325;BME280;66387;53.440;10.390;2023-03-14T12:01:59;98509.25;;;4.24;85.37
77325;BME280;66387;53.440;10.390;2023-03-14T12:07:34;98525.53;;;4.23;83.87
77325;BME280;66387;53.440;10.390;2023-03-14T12:10:03;98529.94;;;4.18;82.79
77325;BME280;66387;53.440;10.390;2023-03-14T12:12:28;98542.78;;;4.18;83.60
77325;BME280;66387;53.440;10.390;2023-03-14T12:14:58;98549.78;;;4.10;82.83
77325;BME280;66387;53.440;10.390;2023-03-14T12:17:34;98556.78;;;4.02;84.28
77325;BME280;66387;53.440;10.390;2023-03-14T12:20:06;98555.03;;;4.04;85.22
77325;BME280;66387;53.440;10.390;2023-03-14T12:22:44;98560.34;;;3.97;85.17
77325;BME280;66387;53.440;10.390;2023-03-14T12:30:26;98576.66;;;3.92;81.27
77325;BME280;66387;53.440;10.390;2023-03-14T12:33:19;98585.09;;;3.99;80.46
77325;BME280;66387;53.440;10.390;2023-03-14T12:35:47;98593.56;;;4.03;80.85
77325;BME280;66387;53.440;10.390;2023-03-14T12:41:05;98610.16;;;3.85;79.13
77325;BME280;66387;53.440;10.390;2023-03-14T12:43:33;98618.94;;;3.72;77.62
77325;BME280;66387;53.440;10.390;2023-03-14T12:46:15;98617.03;;;3.83;78.67
77325;BME280;66387;53.440;10.390;2023-03-14T12:48:45;98639.97;;;3.92;78.49
77325;BME280;66387;53.440;10.390;2023-03-14T12:51:17;98633.78;;;4.02;78.00
77325;BME280;66387;53.440;10.390;2023-03-14T12:56:37;98660.97;;;4.15;77.83
77325;BME280;66387;53.440;10.390;2023-03-14T13:01:59;98671.69;;;4.35;77.42
77325;BME280;66387;53.440;10.390;2023-03-14T13:04:44;98661.22;;;4.44;76.97
77325;BME280;66387;53.440;10.390;2023-03-14T13:07:13;98685.94;;;4.52;76.57
77325;BME280;66387;53.440;10.390;2023-03-14T13:10:00;98682.53;;;4.50;75.06
77325;BME280;66387;53.440;10.390;2023-03-14T13:12:28;98694.56;;;4.48;75.20
77325;BME280;66387;53.440;10.390;2023-03-14T13:14:59;98699.59;;;4.54;76.37
77325;BME280;66387;53.440;10.390;2023-03-14T13:17:30;98704.72;;;4.54;76.50
77325;BME280;66387;53.440;10.390;2023-03-14T13:19:57;98713.88;;;4.67;75.17
77325;BME280;66387;53.440;10.390;2023-03-14T13:22:27;98703.56;;;4.68;75.02
77325;BME280;66387;53.440;10.390;2023-03-14T13:25:04;98711.09;;;4.77;77.09
77325;BME280;66387;53.440;10.390;2023-03-14T13:27:32;98723.13;;;4.77;74.97
77325;BME280;66387;53.440;10.390;2023-03-14T13:29:58;98723.91;;;4.79;74.62
77325;BME280;66387;53.440;10.390;2023-03-14T13:32:28;98731.66;;;4.77;73.94
77325;BME280;66387;53.440;10.390;2023-03-14T13:34:59;98741.91;;;4.79;74.33